NKS3 TJSJ-KMCO
Flight info
| Callsign | NKS3 |
|---|---|
| Flight time | N/A |
| Altitude | 34000 |
| Route | ACONY3 SAPPO Y280 CHASO/N0448F360 Y280 OCTAL RIDES2 |
| Aircraft | A320/M-SDE3FGHIRWY/LB1 |
Departure
| Time | 2026-05-04 03:26 |
|---|---|
| Airport | Luis Munoz Marin International Airport (TJSJ) |
Arrival
| Time | N/A |
|---|---|
| Airport | Orlando International Airport (KMCO) |
| Time | Latitude | Longitude | Altitude | Speed | Heading |
|---|---|---|---|---|---|
| 2026-05-04 02:49 | 18.43818 | -66.00190 | 18 ft | 0 kts | 358° |
| 2026-05-04 03:16 | 18.43808 | -66.00190 | 18 ft | 4 kts | 358° |
| 2026-05-04 03:17 | 18.43791 | -66.00188 | 18 ft | 4 kts | 52° |
| 2026-05-04 03:17 | 18.43785 | -66.00210 | 18 ft | 3 kts | 80° |
| 2026-05-04 03:17 | 18.43781 | -66.00235 | 18 ft | 2 kts | 80° |
| 2026-05-04 03:17 | 18.43781 | -66.00236 | 18 ft | 0 kts | 80° |
| 2026-05-04 03:19 | 18.43782 | -66.00230 | 18 ft | 2 kts | 83° |
| 2026-05-04 03:20 | 18.43776 | -66.00206 | 19 ft | 4 kts | 109° |
| 2026-05-04 03:20 | 18.43767 | -66.00183 | 20 ft | 6 kts | 110° |
| 2026-05-04 03:20 | 18.43778 | -66.00115 | 19 ft | 9 kts | 64° |
| 2026-05-04 03:20 | 18.43813 | -66.00052 | 19 ft | 11 kts | 39° |
| 2026-05-04 03:21 | 18.43864 | -66.00056 | 18 ft | 12 kts | 335° |
| 2026-05-04 03:21 | 18.43951 | -66.00096 | 17 ft | 15 kts | 339° |
| 2026-05-04 03:21 | 18.44054 | -66.00141 | 17 ft | 17 kts | 337° |
| 2026-05-04 03:21 | 18.44166 | -66.00192 | 17 ft | 17 kts | 333° |
| 2026-05-04 03:22 | 18.44246 | -66.00267 | 17 ft | 15 kts | 277° |
| 2026-05-04 03:22 | 18.44205 | -66.00375 | 18 ft | 17 kts | 248° |
| 2026-05-04 03:22 | 18.44153 | -66.00483 | 17 ft | 17 kts | 231° |
| 2026-05-04 03:22 | 18.44086 | -66.00591 | 17 ft | 16 kts | 247° |
| 2026-05-04 03:23 | 18.44040 | -66.00705 | 17 ft | 18 kts | 246° |
| 2026-05-04 03:23 | 18.43990 | -66.00828 | 17 ft | 18 kts | 247° |
| 2026-05-04 03:23 | 18.43940 | -66.00954 | 17 ft | 20 kts | 247° |
| 2026-05-04 03:23 | 18.43893 | -66.01071 | 17 ft | 15 kts | 247° |
| 2026-05-04 03:24 | 18.43852 | -66.01183 | 16 ft | 17 kts | 251° |
| 2026-05-04 03:24 | 18.43814 | -66.01285 | 17 ft | 13 kts | 248° |
| 2026-05-04 03:24 | 18.43795 | -66.01388 | 16 ft | 15 kts | 246° |
| 2026-05-04 03:24 | 18.43757 | -66.01482 | 16 ft | 15 kts | 251° |
| 2026-05-04 03:25 | 18.43816 | -66.01562 | 15 ft | 16 kts | 356° |
| 2026-05-04 03:25 | 18.43869 | -66.01502 | 15 ft | 1 kts | 68° |
| 2026-05-04 03:25 | 18.43875 | -66.01487 | 15 ft | 4 kts | 67° |
| 2026-05-04 03:25 | 18.43951 | -66.01299 | 15 ft | 63 kts | 66° |
| 2026-05-04 03:26 | 18.44205 | -66.00671 | 19 ft | 120 kts | 67° |
| 2026-05-04 03:26 | 18.44594 | -65.99707 | 35 ft | 162 kts | 68° |
| 2026-05-04 03:26 | 18.45044 | -65.98607 | 615 ft | 163 kts | 66° |
| 2026-05-04 03:26 | 18.45765 | -65.97696 | 1267 ft | 170 kts | 28° |
| 2026-05-04 03:27 | 18.46937 | -65.97578 | 1886 ft | 179 kts | 342° |
| 2026-05-04 03:27 | 18.47953 | -65.98420 | 2187 ft | 201 kts | 310° |
| 2026-05-04 03:27 | 18.48921 | -65.99596 | 2428 ft | 223 kts | 313° |
| 2026-05-04 03:27 | 18.50014 | -66.00858 | 2735 ft | 243 kts | 314° |
| 2026-05-04 03:28 | 18.51228 | -66.02221 | 3087 ft | 267 kts | 314° |
| 2026-05-04 03:28 | 18.52548 | -66.03683 | 3727 ft | 280 kts | 315° |
| 2026-05-04 03:28 | 18.53915 | -66.05186 | 4553 ft | 286 kts | 315° |
| 2026-05-04 03:28 | 18.55299 | -66.06702 | 5404 ft | 290 kts | 315° |
| 2026-05-04 03:29 | 18.56713 | -66.08250 | 6226 ft | 294 kts | 315° |
| 2026-05-04 03:29 | 18.58141 | -66.09813 | 7021 ft | 296 kts | 315° |
| 2026-05-04 03:29 | 18.59571 | -66.11377 | 7803 ft | 297 kts | 315° |
| 2026-05-04 03:29 | 18.61014 | -66.12954 | 8591 ft | 300 kts | 315° |
| 2026-05-04 03:30 | 18.62465 | -66.14540 | 9373 ft | 302 kts | 315° |
| 2026-05-04 03:30 | 18.63923 | -66.16133 | 10144 ft | 304 kts | 315° |
| 2026-05-04 03:30 | 18.65438 | -66.17788 | 10381 ft | 325 kts | 314° |
| 2026-05-04 03:30 | 18.67052 | -66.19552 | 10694 ft | 339 kts | 314° |
| 2026-05-04 03:31 | 18.68702 | -66.21359 | 11261 ft | 344 kts | 314° |
| 2026-05-04 03:31 | 18.70370 | -66.23187 | 11888 ft | 347 kts | 314° |
| 2026-05-04 03:31 | 18.72052 | -66.25029 | 12515 ft | 350 kts | 314° |
| 2026-05-04 03:31 | 18.73749 | -66.26887 | 13142 ft | 353 kts | 314° |
| 2026-05-04 03:32 | 18.75456 | -66.28756 | 13753 ft | 355 kts | 314° |
| 2026-05-04 03:32 | 18.77176 | -66.30644 | 14306 ft | 358 kts | 313° |
| 2026-05-04 03:32 | 18.78908 | -66.32546 | 14858 ft | 360 kts | 313° |
| 2026-05-04 03:32 | 18.80649 | -66.34456 | 15416 ft | 362 kts | 313° |
| 2026-05-04 03:33 | 18.82396 | -66.36377 | 15980 ft | 364 kts | 312° |
| 2026-05-04 03:33 | 18.84150 | -66.38304 | 16546 ft | 365 kts | 312° |
| 2026-05-04 03:33 | 18.85916 | -66.40246 | 17101 ft | 367 kts | 311° |
| 2026-05-04 03:33 | 18.87693 | -66.42198 | 17640 ft | 370 kts | 311° |
| 2026-05-04 03:34 | 18.89480 | -66.44163 | 18187 ft | 372 kts | 311° |
| 2026-05-04 03:34 | 18.91282 | -66.46145 | 18649 ft | 375 kts | 311° |
| 2026-05-04 03:34 | 18.93100 | -66.48139 | 19093 ft | 378 kts | 312° |
| 2026-05-04 03:34 | 18.94971 | -66.50111 | 19531 ft | 382 kts | 313° |
| 2026-05-04 03:35 | 18.96897 | -66.52064 | 19958 ft | 385 kts | 314° |
| 2026-05-04 03:35 | 18.98832 | -66.53990 | 20381 ft | 389 kts | 315° |
| 2026-05-04 03:35 | 19.00812 | -66.55954 | 20801 ft | 392 kts | 315° |
| 2026-05-04 03:35 | 19.02803 | -66.57940 | 21208 ft | 395 kts | 314° |
| 2026-05-04 03:36 | 19.04803 | -66.59955 | 21609 ft | 399 kts | 315° |
| 2026-05-04 03:36 | 19.06810 | -66.61991 | 21989 ft | 402 kts | 315° |
| 2026-05-04 03:36 | 19.08713 | -66.64170 | 22356 ft | 405 kts | 308° |
| 2026-05-04 03:36 | 19.10504 | -66.66484 | 22736 ft | 408 kts | 308° |
| 2026-05-04 03:37 | 19.12311 | -66.68812 | 23110 ft | 412 kts | 308° |
| 2026-05-04 03:37 | 19.14140 | -66.71165 | 23480 ft | 416 kts | 309° |
| 2026-05-04 03:37 | 19.15986 | -66.73536 | 23811 ft | 419 kts | 309° |
| 2026-05-04 03:37 | 19.17844 | -66.75922 | 24133 ft | 421 kts | 309° |
| 2026-05-04 03:38 | 19.19714 | -66.78325 | 24482 ft | 423 kts | 309° |
| 2026-05-04 03:38 | 19.21582 | -66.80726 | 24841 ft | 424 kts | 309° |
| 2026-05-04 03:38 | 19.23462 | -66.83141 | 25204 ft | 425 kts | 308° |
| 2026-05-04 03:38 | 19.25342 | -66.85559 | 25566 ft | 426 kts | 308° |
| 2026-05-04 03:39 | 19.27227 | -66.87989 | 25925 ft | 428 kts | 308° |
| 2026-05-04 03:39 | 19.29118 | -66.90430 | 26274 ft | 429 kts | 308° |
| 2026-05-04 03:39 | 19.31017 | -66.92881 | 26628 ft | 431 kts | 308° |
| 2026-05-04 03:39 | 19.32920 | -66.95332 | 26967 ft | 432 kts | 308° |
| 2026-05-04 03:40 | 19.34834 | -66.97792 | 27304 ft | 433 kts | 308° |